Time;durP1;ratioP1;P1;durP2;ratioP2;P2;SDS_P1;SDS_P2;PMS_P1;PMS_P2;Temp;Humidity;BMP_temperature;BMP_pressure;BME280_temperature;BME280_humidity;BME280_pressure;Samples;Min_cycle;Max_cycle;Signal;HPM_P1;HPM_P2
2021/01/19 00:01:01;;;;;;;56.60;35.50;;;-0.60;99.90;;;;;;5114349;28;20670;-81
2021/01/19 00:03:26;;;;;;;50.60;32.67;;;-0.60;99.90;;;;;;5115896;28;20172;-81
2021/01/19 00:05:52;;;;;;;52.13;33.60;;;-0.60;99.90;;;;;;5114189;28;20233;-81
2021/01/19 00:08:18;;;;;;;47.60;32.17;;;-0.60;99.90;;;;;;5115703;28;20179;-82
2021/01/19 00:10:43;;;;;;;53.40;33.87;;;-0.60;99.90;;;;;;5114216;28;20184;-81
2021/01/19 00:13:09;;;;;;;50.83;31.00;;;-0.60;99.90;;;;;;5115379;28;20258;-81
2021/01/19 00:15:34;;;;;;;50.23;31.10;;;-0.60;99.90;;;;;;5113990;28;20242;-81
2021/01/19 00:18:00;;;;;;;49.10;30.30;;;-0.60;99.90;;;;;;5115323;28;20168;-81
2021/01/19 00:20:26;;;;;;;48.63;31.83;;;-0.70;99.90;;;;;;5115215;28;20176;-81
2021/01/19 00:22:51;;;;;;;52.37;34.40;;;-0.60;99.90;;;;;;5115218;28;20580;-81
2021/01/19 00:25:17;;;;;;;49.83;32.37;;;-0.60;99.90;;;;;;5114069;28;20628;-81
2021/01/19 00:27:43;;;;;;;56.60;39.20;;;-0.60;99.90;;;;;;5113831;28;20213;-81
2021/01/19 00:30:09;;;;;;;49.80;32.77;;;-0.60;99.80;;;;;;5113662;28;20217;-81
2021/01/19 00:32:34;;;;;;;67.05;45.85;;;-0.70;99.90;;;;;;5114006;28;20184;-81
2021/01/19 00:35:00;;;;;;;51.23;38.43;;;-0.60;99.90;;;;;;5115233;28;20628;-81
2021/01/19 00:40:48;;;;;;;42.88;30.73;;;-0.60;99.90;;;;;;5094453;28;20214;-81
2021/01/19 00:43:13;;;;;;;52.97;33.63;;;-0.80;99.90;;;;;;5093103;28;20177;-81
2021/01/19 00:45:39;;;;;;;46.50;30.20;;;-0.70;99.90;;;;;;5094378;28;20187;-81
2021/01/19 00:48:05;;;;;;;55.27;34.30;;;-0.70;99.90;;;;;;5094417;28;20168;-81
2021/01/19 00:50:31;;;;;;;46.13;29.75;;;-0.60;99.90;;;;;;5092941;28;20191;-81
2021/01/19 00:52:57;;;;;;;48.90;32.30;;;-0.70;99.90;;;;;;5092777;28;20231;-81
2021/01/19 00:55:22;;;;;;;55.50;33.53;;;-0.70;99.90;;;;;;5093039;28;20249;-81
2021/01/19 00:57:48;;;;;;;44.40;30.23;;;-0.60;99.90;;;;;;5094150;28;20322;-81
2021/01/19 01:00:16;;;;;;;47.83;32.80;;;-0.50;99.90;;;;;;5094402;28;20641;-82
2021/01/19 01:02:41;;;;;;;46.30;28.17;;;-0.50;99.50;;;;;;5092872;28;20180;-81
2021/01/19 01:05:09;;;;;;;44.97;28.90;;;-0.40;99.60;;;;;;5092948;28;20645;-81
2021/01/19 01:07:36;;;;;;;45.55;29.42;;;-0.40;99.80;;;;;;5092796;28;20172;-81
2021/01/19 01:10:04;;;;;;;43.25;28.48;;;-0.40;99.50;;;;;;5092899;28;20184;-81
2021/01/19 01:12:30;;;;;;;49.42;31.60;;;-0.40;99.60;;;;;;5092954;28;20188;-81
2021/01/19 01:14:56;;;;;;;47.40;30.00;;;-0.30;99.30;;;;;;5094226;28;20177;-81
2021/01/19 01:17:21;;;;;;;48.73;29.13;;;-0.40;99.10;;;;;;5093884;28;20376;-81
2021/01/19 01:19:47;;;;;;;43.63;29.40;;;-0.30;99.10;;;;;;5092705;28;20396;-81
2021/01/19 01:22:13;;;;;;;50.00;30.70;;;-0.40;99.10;;;;;;5092489;28;20632;-81
2021/01/19 01:24:39;;;;;;;47.07;28.77;;;-0.40;99.40;;;;;;5092449;28;20434;-81
2021/01/19 01:27:04;;;;;;;42.07;29.27;;;-0.30;99.10;;;;;;5093030;28;20589;-81
2021/01/19 01:29:30;;;;;;;48.33;30.33;;;-0.30;98.90;;;;;;5092609;28;20188;-81
2021/01/19 01:31:56;;;;;;;43.73;28.73;;;-0.30;98.90;;;;;;5092337;28;20391;-81
2021/01/19 01:34:22;;;;;;;45.58;29.85;;;-0.30;99.20;;;;;;5094592;28;20341;-81
2021/01/19 01:36:48;;;;;;;44.60;29.80;;;-0.40;98.80;;;;;;5112719;28;20771;-81
2021/01/19 01:39:13;;;;;;;45.27;28.80;;;-0.40;99.10;;;;;;5112700;28;20285;-81
2021/01/19 01:41:39;;;;;;;44.93;27.87;;;-0.40;98.80;;;;;;5112662;28;20627;-81
2021/01/19 01:44:05;;;;;;;46.13;30.17;;;-0.50;98.90;;;;;;5114118;28;20172;-81
2021/01/19 01:46:34;;;;;;;48.10;28.80;;;-0.50;99.00;;;;;;5113916;28;20179;-81
2021/01/19 01:49:01;;;;;;;41.97;26.95;;;-0.50;98.80;;;;;;5112527;28;20184;-81
2021/01/19 01:51:28;;;;;;;46.13;28.27;;;-0.50;99.00;;;;;;5113920;28;20176;-81
2021/01/19 01:53:56;;;;;;;51.22;29.38;;;-0.50;98.80;;;;;;5113838;28;20552;-81
2021/01/19 01:56:22;;;;;;;45.95;28.25;;;-0.50;98.80;;;;;;5112486;28;20199;-81
2021/01/19 01:58:48;;;;;;;42.22;29.75;;;-0.50;98.60;;;;;;5113849;28;20241;-81
2021/01/19 02:01:14;;;;;;;46.42;27.73;;;-0.60;98.40;;;;;;5112428;28;20179;-81
2021/01/19 02:03:40;;;;;;;45.90;27.57;;;-0.70;98.90;;;;;;5113849;28;20172;-81
2021/01/19 02:06:06;;;;;;;43.80;29.97;;;-0.70;98.90;;;;;;5112540;28;20397;-81
2021/01/19 02:09:02;;;;;;;47.00;28.80;;;-0.80;98.80;;;;;;5112374;28;20569;-81
2021/01/19 02:12:12;;;;;;;45.33;28.70;;;-0.90;98.90;;;;;;5113817;28;20160;-81
2021/01/19 02:14:49;;;;;;;47.03;29.33;;;-0.70;98.80;;;;;;5108827;28;20547;-81
2021/01/19 02:17:30;;;;;;;50.63;31.60;;;-0.70;98.80;;;;;;5117679;28;20661;-81
2021/01/19 02:20:26;;;;;;;49.08;29.90;;;-0.60;98.70;;;;;;5118043;28;20168;-81
2021/01/19 02:23:07;;;;;;;49.38;29.52;;;-0.70;98.80;;;;;;5116264;28;20266;-81
2021/01/19 02:25:51;;;;;;;44.50;30.20;;;-0.60;99.00;;;;;;5117645;28;20172;-81
2021/01/19 02:28:40;;;;;;;37.95;26.48;;;-0.50;98.60;;;;;;5116170;28;20160;-81
2021/01/19 02:31:35;;;;;;;43.92;29.85;;;-0.60;98.70;;;;;;5116103;28;20172;-81
2021/01/19 02:34:21;;;;;;;47.47;28.65;;;-0.60;98.70;;;;;;5115986;28;20195;-81
2021/01/19 02:37:06;;;;;;;43.15;28.80;;;-0.50;98.70;;;;;;5096792;28;20188;-81
2021/01/19 02:39:47;;;;;;;42.90;28.08;;;-0.50;98.70;;;;;;5109477;28;20202;-81
2021/01/19 02:42:18;;;;;;;45.55;27.58;;;-0.50;98.40;;;;;;5117246;28;20177;-81
2021/01/19 02:44:46;;;;;;;43.40;26.75;;;-0.60;98.40;;;;;;5116085;28;20187;-81
2021/01/19 02:47:13;;;;;;;46.63;28.42;;;-0.60;98.70;;;;;;5117014;28;20180;-81
2021/01/19 02:49:39;;;;;;;42.47;28.40;;;-0.60;98.50;;;;;;5117433;27;20191;-81
2021/01/19 02:52:05;;;;;;;48.53;30.73;;;-0.60;98.10;;;;;;5115596;28;20175;-81
2021/01/19 02:54:33;;;;;;;41.17;27.17;;;-0.60;98.30;;;;;;5117286;28;20643;-82
2021/01/19 02:56:58;;;;;;;43.35;28.35;;;-0.70;98.40;;;;;;5117070;28;20191;-81
2021/01/19 02:59:49;;;;;;;42.13;27.07;;;-0.60;98.10;;;;;;5117146;28;20167;-81
2021/01/19 03:02:21;;;;;;;49.10;28.88;;;-0.70;98.10;;;;;;5115652;28;20168;-81
2021/01/19 03:04:49;;;;;;;43.80;27.42;;;-0.60;97.90;;;;;;5117106;28;20174;-81
2021/01/19 03:07:17;;;;;;;42.70;28.02;;;-0.60;97.80;;;;;;5115448;28;20183;-81
2021/01/19 03:09:44;;;;;;;42.35;25.42;;;-0.70;97.70;;;;;;5117009;28;20559;-81
2021/01/19 03:12:13;;;;;;;43.90;28.30;;;-0.60;97.50;;;;;;5116641;28;20538;-81
2021/01/19 03:14:39;;;;;;;44.00;27.45;;;-0.60;97.60;;;;;;5115432;28;20212;-81
2021/01/19 03:17:10;;;;;;;38.13;25.05;;;-0.70;97.90;;;;;;5116445;28;20235;-81
2021/01/19 03:19:38;;;;;;;40.33;26.52;;;-0.60;97.50;;;;;;5115193;28;20172;-81
2021/01/19 03:22:04;;;;;;;37.17;25.25;;;-0.60;97.40;;;;;;5115150;28;20175;-81
2021/01/19 03:24:30;;;;;;;41.47;26.90;;;-0.70;97.50;;;;;;5116650;28;20176;-81
2021/01/19 03:26:56;;;;;;;38.73;25.67;;;-0.70;97.20;;;;;;5115131;28;20406;-81
2021/01/19 03:29:21;;;;;;;42.37;27.77;;;-0.70;97.00;;;;;;5115141;28;20191;-81
2021/01/19 03:31:47;;;;;;;46.40;28.40;;;-0.70;97.10;;;;;;5114959;28;20188;-81
2021/01/19 03:34:13;;;;;;;43.67;26.03;;;-0.80;97.10;;;;;;5116010;28;20651;-81
2021/01/19 03:36:39;;;;;;;36.78;24.38;;;-0.80;97.30;;;;;;5116219;28;20215;-81
2021/01/19 03:39:05;;;;;;;40.60;26.67;;;-0.90;97.10;;;;;;5116223;28;20180;-81
2021/01/19 03:41:31;;;;;;;37.72;25.30;;;-0.90;97.20;;;;;;5116030;28;20510;-81
2021/01/19 03:43:57;;;;;;;42.40;25.57;;;-0.90;97.10;;;;;;5116241;28;20183;-81
2021/01/19 03:46:24;;;;;;;38.53;24.83;;;-0.90;97.20;;;;;;5114723;28;20549;-81
2021/01/19 03:48:49;;;;;;;39.55;25.45;;;-1.00;96.90;;;;;;5114761;28;20207;-81
2021/01/19 03:51:15;;;;;;;44.43;26.77;;;-0.90;96.90;;;;;;5114658;28;20625;-81
2021/01/19 03:53:41;;;;;;;42.25;27.65;;;-1.00;97.00;;;;;;5114445;28;20272;-81
2021/01/19 03:56:07;;;;;;;49.53;29.97;;;-1.00;97.80;;;;;;5114396;28;20207;-81
2021/01/19 03:58:32;;;;;;;48.17;27.60;;;-1.00;97.20;;;;;;5114394;28;20696;-81
2021/01/19 04:00:58;;;;;;;47.53;28.70;;;-1.00;97.40;;;;;;5115782;28;20168;-81
2021/01/19 04:03:24;;;;;;;43.33;25.23;;;-0.90;97.40;;;;;;5115725;28;20309;-81
2021/01/19 04:05:49;;;;;;;50.33;31.53;;;-0.90;96.90;;;;;;5115582;28;20179;-81
2021/01/19 04:08:15;;;;;;;43.60;28.00;;;-0.90;97.40;;;;;;5115530;28;20168;-81
2021/01/19 04:10:41;;;;;;;42.90;27.60;;;-0.90;97.10;;;;;;5114219;28;20180;-81
2021/01/19 04:13:06;;;;;;;42.47;26.27;;;-0.90;97.20;;;;;;5115367;28;20203;-81
2021/01/19 04:15:32;;;;;;;41.10;25.70;;;-0.90;97.40;;;;;;5115638;28;20192;-81
2021/01/19 04:17:58;;;;;;;43.60;25.80;;;-0.90;97.40;;;;;;5114184;28;20643;-81
2021/01/19 04:20:24;;;;;;;40.17;25.33;;;-0.90;97.40;;;;;;5114282;28;20172;-81
2021/01/19 04:22:50;;;;;;;39.70;23.55;;;-0.80;97.30;;;;;;5114076;28;20200;-81
2021/01/19 04:25:16;;;;;;;36.40;24.50;;;-0.80;97.20;;;;;;5115761;28;20229;-81
2021/01/19 04:27:41;;;;;;;36.57;25.10;;;-0.80;97.30;;;;;;5113890;28;20270;-81
2021/01/19 04:30:08;;;;;;;34.60;23.60;;;-0.80;97.30;;;;;;5115672;28;20254;-81
2021/01/19 04:32:37;;;;;;;35.88;23.50;;;-0.70;96.90;;;;;;5113886;28;20208;-81
2021/01/19 04:35:04;;;;;;;34.63;22.80;;;-0.60;97.00;;;;;;5113310;28;20182;-81
2021/01/19 04:37:30;;;;;;;34.60;23.13;;;-0.60;96.80;;;;;;5115027;28;20180;-81
2021/01/19 04:39:55;;;;;;;33.97;20.87;;;-0.60;96.80;;;;;;5113695;28;20509;-81
2021/01/19 04:42:21;;;;;;;39.93;25.30;;;-0.60;96.80;;;;;;5113688;28;20172;-81
2021/01/19 04:44:50;;;;;;;36.83;24.30;;;-0.50;96.90;;;;;;5115236;28;20529;-81
2021/01/19 04:47:16;;;;;;;38.88;22.63;;;-0.50;96.90;;;;;;5113568;28;20228;-81
2021/01/19 04:49:44;;;;;;;36.88;22.33;;;-0.40;96.80;;;;;;5113600;28;20229;-81
2021/01/19 04:52:17;;;;;;;38.90;24.25;;;-0.40;96.60;;;;;;5113259;28;20270;-81
2021/01/19 04:55:15;;;;;;;34.30;23.00;;;-0.40;96.80;;;;;;5115198;28;20251;-81
2021/01/19 04:57:42;;;;;;;33.85;22.02;;;-0.40;96.60;;;;;;5114317;28;20234;-81
2021/01/19 05:00:15;;;;;;;39.60;22.75;;;-0.30;96.80;;;;;;5113408;28;20186;-81
2021/01/19 05:03:03;;;;;;;35.83;21.60;;;-0.30;96.70;;;;;;5114514;28;20659;-81
2021/01/19 05:05:37;;;;;;;32.65;22.35;;;-0.30;96.60;;;;;;5113618;28;20179;-81
2021/01/19 05:08:12;;;;;;;33.78;21.70;;;-0.20;96.60;;;;;;5114806;28;20650;-81
2021/01/19 05:10:38;;;;;;;35.83;23.25;;;-0.20;96.40;;;;;;5114881;28;20575;-81
2021/01/19 05:13:12;;;;;;;34.00;24.20;;;-0.10;96.50;;;;;;5114458;28;20533;-81
2021/01/19 05:15:48;;;;;;;32.65;21.08;;;0.00;96.40;;;;;;5112969;28;20260;-81
2021/01/19 05:18:16;;;;;;;34.15;22.48;;;-0.10;96.30;;;;;;5112962;28;20186;-81
2021/01/19 05:20:46;;;;;;;37.67;23.75;;;0.00;95.90;;;;;;5112952;28;20275;-81
2021/01/19 05:23:21;;;;;;;37.75;24.17;;;0.00;96.20;;;;;;5113182;28;20163;-81
2021/01/19 05:25:58;;;;;;;37.13;22.95;;;-0.10;96.10;;;;;;5114233;28;20206;-81
2021/01/19 05:28:46;;;;;;;39.70;23.52;;;0.00;96.30;;;;;;5114302;28;20203;-81
2021/01/19 05:31:14;;;;;;;37.15;22.15;;;0.00;96.00;;;;;;5112814;28;20168;-81
2021/01/19 05:33:53;;;;;;;36.35;22.35;;;0.10;95.90;;;;;;5114231;28;20642;-81
2021/01/19 05:36:20;;;;;;;37.00;23.83;;;0.20;95.40;;;;;;5113880;28;20898;-81
2021/01/19 05:38:45;;;;;;;37.90;24.85;;;0.30;95.20;;;;;;5112723;28;20172;-81
2021/01/19 05:41:23;;;;;;;36.50;23.63;;;0.30;95.50;;;;;;5113912;28;20183;-81
2021/01/19 05:43:53;;;;;;;40.80;25.38;;;0.50;94.90;;;;;;5112753;28;20194;-81
2021/01/19 05:46:27;;;;;;;35.05;21.08;;;0.70;94.30;;;;;;5113896;28;20183;-81
2021/01/19 05:48:58;;;;;;;42.85;23.70;;;1.00;93.80;;;;;;5115985;28;20745;-81
2021/01/19 05:51:26;;;;;;;41.05;22.40;;;1.00;93.90;;;;;;5117014;28;20229;-81
2021/01/19 05:53:55;;;;;;;32.75;21.48;;;1.10;93.90;;;;;;5116745;28;20234;-81
2021/01/19 05:56:25;;;;;;;38.72;26.35;;;1.20;93.70;;;;;;5116778;28;20288;-81
2021/01/19 05:58:50;;;;;;;40.88;26.30;;;0.90;95.30;;;;;;5116762;28;20179;-81
2021/01/19 06:01:33;;;;;;;40.47;26.07;;;0.50;97.00;;;;;;5118122;28;20658;-81
2021/01/19 06:04:00;;;;;;;42.80;28.20;;;0.30;98.10;;;;;;5118232;28;20390;-81
2021/01/19 06:09:49;;;;;;;44.90;30.38;;;0.20;99.80;;;;;;5118525;28;20182;-81
2021/01/19 06:12:16;;;;;;;45.00;29.38;;;0.20;99.90;;;;;;5117872;28;20188;-81
2021/01/19 06:14:49;;;;;;;49.60;32.20;;;0.20;99.90;;;;;;5116561;28;20233;-81
2021/01/19 06:17:22;;;;;;;55.13;34.95;;;0.10;99.90;;;;;;5116165;28;20681;-81
2021/01/19 06:19:52;;;;;;;51.85;31.38;;;-0.10;99.90;;;;;;5116546;28;20168;-81
2021/01/19 06:22:20;;;;;;;54.88;33.67;;;0.00;99.90;;;;;;5116737;28;20183;-81
2021/01/19 06:24:48;;;;;;;51.85;32.40;;;0.00;99.90;;;;;;5117976;28;20628;-81
2021/01/19 06:30:39;;;;;;;56.17;31.85;;;0.00;99.90;;;;;;5117749;28;20155;-82
2021/01/19 06:33:05;;;;;;;65.43;39.40;;;0.00;99.90;;;;;;5117392;28;20220;-81
2021/01/19 06:35:40;;;;;;;70.07;40.92;;;0.10;99.90;;;;;;5115948;28;20206;-81
2021/01/19 06:38:06;;;;;;;74.45;44.85;;;0.10;99.90;;;;;;5117281;28;20156;-81
2021/01/19 06:40:38;;;;;;;71.90;40.83;;;0.10;99.90;;;;;;5115838;28;20172;-81
2021/01/19 06:43:04;;;;;;;66.88;40.97;;;0.10;99.90;;;;;;5117118;28;20231;-81
2021/01/19 06:45:33;;;;;;;81.53;46.67;;;0.10;99.90;;;;;;5115874;28;20651;-81
2021/01/19 06:48:02;;;;;;;74.95;43.78;;;0.20;99.90;;;;;;5115807;28;20184;-81
2021/01/19 06:50:30;;;;;;;103.82;63.88;;;0.20;99.90;;;;;;5117153;28;20180;-81
2021/01/19 06:53:17;;;;;;;99.63;58.25;;;0.20;99.90;;;;;;5115548;28;20225;-81
2021/01/19 06:55:58;;;;;;;145.07;96.00;;;0.20;99.90;;;;;;5115626;28;20291;-81
2021/01/19 06:58:49;;;;;;;79.75;51.67;;;0.30;99.90;;;;;;5115190;28;20180;-81
2021/01/19 07:01:17;;;;;;;169.60;108.03;;;0.30;99.90;;;;;;5120887;27;20187;-81
2021/01/19 07:03:44;;;;;;;100.30;59.55;;;0.40;99.90;;;;;;5120683;27;20179;-81
2021/01/19 07:06:12;;;;;;;81.40;46.17;;;0.40;99.90;;;;;;5135654;27;20602;-81
2021/01/19 07:09:05;;;;;;;73.55;45.92;;;0.40;99.90;;;;;;5136035;27;20179;-83
2021/01/19 07:11:54;;;;;;;77.15;47.78;;;0.40;99.90;;;;;;5135994;27;20179;-82
2021/01/19 07:14:39;;;;;;;88.47;54.33;;;0.40;99.90;;;;;;5136167;27;20187;-82
2021/01/19 07:17:18;;;;;;;132.70;81.22;;;0.40;99.90;;;;;;5131251;27;20701;-81
2021/01/19 07:19:50;;;;;;;72.25;46.03;;;0.50;99.90;;;;;;5116661;28;20176;-82
2021/01/19 07:22:19;;;;;;;97.90;61.80;;;0.50;99.90;;;;;;5131659;27;20278;-82
2021/01/19 07:24:47;;;;;;;68.65;43.95;;;0.50;99.90;;;;;;5135778;27;20179;-79
2021/01/19 07:27:15;;;;;;;73.18;49.60;;;0.60;99.90;;;;;;5136955;27;20626;-80
2021/01/19 07:29:41;;;;;;;136.88;90.38;;;0.60;99.90;;;;;;5121178;27;20541;-80
2021/01/19 07:32:15;;;;;;;150.93;102.20;;;0.60;99.90;;;;;;5114919;28;20187;-80
2021/01/19 07:34:41;;;;;;;69.10;50.33;;;0.70;99.90;;;;;;5105341;28;20179;-81
2021/01/19 07:37:08;;;;;;;91.13;63.30;;;0.70;99.90;;;;;;5113483;28;20210;-81
2021/01/19 07:39:35;;;;;;;110.28;79.75;;;0.80;99.90;;;;;;5110422;28;20180;-81
2021/01/19 07:42:18;;;;;;;76.45;53.60;;;0.80;99.90;;;;;;5118634;27;20178;-81
2021/01/19 07:45:03;;;;;;;77.43;51.22;;;0.80;99.90;;;;;;5116305;27;20270;-81
2021/01/19 07:47:40;;;;;;;75.07;49.47;;;0.90;99.90;;;;;;5111843;28;20210;-82
2021/01/19 07:50:26;;;;;;;80.80;52.83;;;1.00;99.90;;;;;;5106696;28;20183;-82
2021/01/19 07:52:53;;;;;;;76.18;51.83;;;0.90;99.90;;;;;;5115629;28;20235;-81
2021/01/19 07:55:24;;;;;;;114.47;78.53;;;0.90;99.90;;;;;;5113599;27;20591;-81
2021/01/19 07:57:54;;;;;;;85.40;56.90;;;1.00;99.90;;;;;;5105215;28;20188;-81
2021/01/19 08:00:27;;;;;;;118.05;89.38;;;1.00;99.90;;;;;;5104171;28;20175;-81
2021/01/19 08:03:06;;;;;;;107.60;91.55;;;0.90;99.90;;;;;;5116558;27;20548;-81
2021/01/19 08:05:32;;;;;;;71.22;50.95;;;1.00;99.90;;;;;;5113683;27;20187;-81
2021/01/19 08:07:59;;;;;;;57.35;38.20;;;1.10;99.90;;;;;;5115646;27;20188;-81
2021/01/19 08:10:32;;;;;;;51.83;35.40;;;1.10;99.90;;;;;;5108280;27;20203;-81
2021/01/19 08:12:59;;;;;;;49.67;32.20;;;1.10;99.90;;;;;;5120208;27;20198;-81
2021/01/19 08:15:33;;;;;;;53.15;32.80;;;1.30;99.90;;;;;;5117374;27;20188;-81
2021/01/19 08:18:04;;;;;;;50.08;32.38;;;1.10;99.90;;;;;;5112369;27;20175;-81
2021/01/19 08:20:32;;;;;;;51.80;32.55;;;1.20;99.90;;;;;;5105679;28;20576;-81
2021/01/19 08:23:09;;;;;;;55.80;38.00;;;1.20;99.90;;;;;;5111774;28;20609;-81
2021/01/19 08:25:35;;;;;;;44.22;31.73;;;1.30;99.90;;;;;;5099299;28;20348;-80
2021/01/19 08:28:01;;;;;;;47.38;31.77;;;1.20;99.90;;;;;;5103455;28;20564;-81
2021/01/19 08:30:27;;;;;;;51.27;31.70;;;1.30;99.90;;;;;;5109532;28;20183;-81
2021/01/19 08:32:54;;;;;;;56.50;37.00;;;1.30;99.70;;;;;;5096021;28;20187;-81
2021/01/19 08:35:22;;;;;;;49.05;33.42;;;1.40;99.80;;;;;;5105206;28;20410;-81
2021/01/19 08:37:53;;;;;;;49.58;31.75;;;1.30;99.50;;;;;;5107564;27;20191;-81
2021/01/19 08:40:26;;;;;;;54.83;37.92;;;1.50;99.20;;;;;;5107186;28;20190;-81
2021/01/19 08:42:53;;;;;;;40.50;29.20;;;1.60;99.00;;;;;;5120523;27;20184;-81
2021/01/19 08:45:28;;;;;;;46.20;37.13;;;1.70;98.00;;;;;;5105767;27;20783;-81
2021/01/19 08:47:56;;;;;;;45.67;32.83;;;1.80;97.80;;;;;;5112715;27;20205;-81
2021/01/19 08:50:23;;;;;;;51.03;34.00;;;1.60;98.10;;;;;;5114002;27;20180;-80
2021/01/19 08:52:50;;;;;;;51.03;33.80;;;1.60;98.00;;;;;;5114385;28;20599;-81
2021/01/19 08:55:17;;;;;;;52.72;35.15;;;1.60;98.30;;;;;;5111869;28;20207;-79
2021/01/19 08:57:49;;;;;;;50.63;38.75;;;1.70;98.20;;;;;;5108305;27;20197;-81
2021/01/19 09:00:29;;;;;;;50.13;32.63;;;1.60;98.40;;;;;;5115025;27;20175;-81
2021/01/19 09:02:57;;;;;;;50.13;34.63;;;1.70;98.00;;;;;;5118207;27;20210;-81
2021/01/19 09:05:28;;;;;;;57.78;41.97;;;1.50;98.40;;;;;;5110321;28;20176;-81
2021/01/19 09:07:55;;;;;;;50.88;38.85;;;1.50;98.60;;;;;;5111448;28;20172;-81
2021/01/19 09:10:23;;;;;;;49.05;34.95;;;1.50;98.00;;;;;;5111137;28;20209;-81
2021/01/19 09:12:50;;;;;;;56.97;38.30;;;1.50;97.70;;;;;;5118863;27;20183;-80
2021/01/19 09:15:16;;;;;;;59.03;40.45;;;1.50;97.40;;;;;;5113863;27;20267;-80
2021/01/19 09:17:50;;;;;;;62.77;42.70;;;1.60;97.40;;;;;;5117563;28;20254;-80
2021/01/19 09:20:16;;;;;;;64.50;43.80;;;1.60;96.60;;;;;;5111846;27;20416;-80
2021/01/19 09:22:42;;;;;;;65.63;42.30;;;1.70;96.40;;;;;;5114113;27;20171;-80
2021/01/19 09:25:08;;;;;;;58.77;44.20;;;1.90;95.40;;;;;;5114457;27;20217;-80
2021/01/19 09:27:35;;;;;;;56.58;38.72;;;2.00;94.80;;;;;;5109038;27;20214;-80
2021/01/19 09:30:16;;;;;;;67.28;47.10;;;2.00;94.90;;;;;;5112016;27;20187;-80
2021/01/19 09:32:43;;;;;;;56.95;40.83;;;2.20;94.70;;;;;;5106454;28;20190;-80
2021/01/19 09:35:14;;;;;;;58.47;42.30;;;2.10;94.60;;;;;;5104539;28;20464;-80
2021/01/19 09:37:40;;;;;;;65.07;45.15;;;2.50;94.10;;;;;;5112538;28;20188;-81
2021/01/19 09:40:07;;;;;;;80.78;62.47;;;2.50;94.00;;;;;;5096389;28;20612;-81
2021/01/19 09:42:36;;;;;;;52.47;36.83;;;3.30;93.70;;;;;;5110551;28;20270;-81
2021/01/19 09:45:03;;;;;;;55.85;45.08;;;3.60;90.70;;;;;;5112917;28;20607;-81
2021/01/19 09:47:30;;;;;;;49.00;37.78;;;3.80;90.80;;;;;;5100689;28;20183;-81
2021/01/19 09:49:56;;;;;;;51.33;39.72;;;3.30;90.30;;;;;;5111681;28;20171;-81
2021/01/19 09:52:30;;;;;;;56.43;43.40;;;3.40;91.30;;;;;;5111093;28;20183;-80
2021/01/19 09:55:31;;;;;;;52.30;34.45;;;3.50;91.20;;;;;;5105054;28;20556;-80
2021/01/19 09:57:58;;;;;;;48.22;35.53;;;3.10;91.70;;;;;;5103412;28;20260;-80
2021/01/19 10:00:29;;;;;;;52.78;37.13;;;3.50;91.10;;;;;;5114207;28;20172;-80
2021/01/19 10:02:55;;;;;;;68.10;45.08;;;3.90;90.50;;;;;;5102864;28;20204;-80
2021/01/19 10:05:24;;;;;;;56.00;41.17;;;4.10;89.70;;;;;;5112821;28;20176;-80
2021/01/19 10:07:50;;;;;;;43.65;30.25;;;4.50;88.50;;;;;;5112218;28;20665;-81
2021/01/19 10:10:18;;;;;;;45.30;34.20;;;4.40;86.00;;;;;;5115419;28;20179;-80
2021/01/19 10:12:44;;;;;;;42.97;29.88;;;4.10;86.20;;;;;;5116063;28;20469;-80
2021/01/19 10:15:12;;;;;;;36.13;29.07;;;4.00;86.10;;;;;;5098696;28;20571;-80
2021/01/19 10:17:38;;;;;;;35.15;26.83;;;4.00;86.90;;;;;;5110896;28;20206;-80
2021/01/19 10:20:15;;;;;;;35.50;25.77;;;3.90;88.70;;;;;;5106937;28;20172;-80
2021/01/19 10:22:43;;;;;;;37.00;26.75;;;3.70;86.00;;;;;;5113035;28;20591;-80
2021/01/19 10:25:12;;;;;;;35.17;24.42;;;3.40;88.20;;;;;;5112108;28;20203;-80
2021/01/19 10:27:44;;;;;;;37.25;25.88;;;3.40;89.30;;;;;;5115935;28;20182;-81
2021/01/19 10:30:13;;;;;;;32.58;25.35;;;3.50;89.70;;;;;;5126214;28;20172;-80
2021/01/19 10:32:50;;;;;;;36.95;26.63;;;3.70;88.50;;;;;;5113256;28;20232;-80
2021/01/19 10:35:30;;;;;;;31.80;23.88;;;3.90;87.20;;;;;;5117693;27;20180;-80
2021/01/19 10:38:05;;;;;;;28.38;21.10;;;4.00;87.10;;;;;;5122585;27;20202;-80
2021/01/19 10:40:31;;;;;;;27.52;19.83;;;4.00;85.70;;;;;;5110064;28;20198;-80
2021/01/19 10:43:00;;;;;;;30.25;25.30;;;4.00;85.30;;;;;;5119967;28;20176;-81
2021/01/19 10:45:30;;;;;;;26.83;18.55;;;4.00;86.20;;;;;;5114051;28;20206;-80
2021/01/19 10:47:58;;;;;;;28.20;19.17;;;4.00;83.80;;;;;;5113631;28;20293;-80
2021/01/19 10:50:30;;;;;;;33.15;25.50;;;4.00;84.20;;;;;;5116835;28;20183;-80
2021/01/19 10:52:58;;;;;;;42.97;36.53;;;4.10;84.80;;;;;;5112693;28;20230;-78
2021/01/19 10:55:24;;;;;;;28.25;21.42;;;4.10;86.10;;;;;;5107141;28;20172;-80
2021/01/19 10:57:58;;;;;;;31.98;27.95;;;4.10;84.90;;;;;;5126117;28;20197;-79
2021/01/19 11:00:25;;;;;;;24.88;20.40;;;4.10;84.00;;;;;;5116356;28;20224;-79
2021/01/19 11:02:54;;;;;;;39.30;33.03;;;4.10;84.00;;;;;;5129213;27;20259;-79
2021/01/19 11:05:20;;;;;;;31.83;23.48;;;4.10;83.30;;;;;;5122851;28;20241;-80
2021/01/19 11:07:56;;;;;;;63.15;56.78;;;4.10;84.10;;;;;;5109649;28;20180;-80
2021/01/19 11:10:24;;;;;;;34.13;25.85;;;4.10;84.60;;;;;;5106410;28;20175;-80
2021/01/19 11:12:55;;;;;;;22.98;18.77;;;4.10;85.20;;;;;;5115566;28;20175;-80
2021/01/19 11:15:21;;;;;;;23.70;18.10;;;4.20;84.90;;;;;;5110584;27;20192;-80
2021/01/19 11:18:05;;;;;;;27.23;22.77;;;4.30;85.50;;;;;;5111968;28;20183;-79
2021/01/19 11:20:31;;;;;;;20.70;16.10;;;4.40;85.30;;;;;;5116624;28;20681;-80
2021/01/19 11:22:56;;;;;;;26.13;17.60;;;4.40;84.30;;;;;;5111348;28;20175;-80
2021/01/19 11:25:22;;;;;;;21.30;17.00;;;4.50;83.00;;;;;;5114195;27;20179;-81
2021/01/19 11:27:49;;;;;;;22.70;19.83;;;4.50;84.20;;;;;;5105674;28;20207;-80
2021/01/19 11:30:15;;;;;;;22.10;16.92;;;4.60;83.20;;;;;;5106962;28;20643;-81
2021/01/19 11:32:41;;;;;;;20.30;15.35;;;4.60;83.10;;;;;;5105729;28;20175;-81
2021/01/19 11:35:07;;;;;;;22.70;17.17;;;4.70;82.10;;;;;;5107435;28;20531;-80
2021/01/19 11:37:33;;;;;;;29.73;19.92;;;4.80;81.00;;;;;;5105673;28;20188;-81
2021/01/19 11:39:59;;;;;;;18.93;15.27;;;4.70;80.50;;;;;;5100179;28;20224;-81
2021/01/19 11:42:24;;;;;;;22.23;15.93;;;4.70;80.70;;;;;;5111675;28;20176;-79
2021/01/19 11:44:50;;;;;;;26.90;20.90;;;4.80;81.10;;;;;;5109379;27;20637;-80
2021/01/19 11:47:16;;;;;;;15.33;12.47;;;4.80;81.00;;;;;;5110373;28;20186;-80
2021/01/19 11:49:41;;;;;;;17.93;14.20;;;4.70;80.00;;;;;;5107697;28;20202;-81
2021/01/19 11:52:08;;;;;;;18.83;14.40;;;4.70;80.50;;;;;;5108165;28;20175;-80
2021/01/19 11:54:34;;;;;;;20.65;14.90;;;4.70;79.60;;;;;;5112223;27;20207;-80
2021/01/19 11:57:00;;;;;;;16.60;13.43;;;4.70;79.60;;;;;;5113800;27;20231;-80
2021/01/19 11:59:26;;;;;;;14.90;13.27;;;4.70;81.00;;;;;;5123505;27;20184;-80
2021/01/19 12:01:54;;;;;;;18.40;13.80;;;4.70;78.60;;;;;;5106246;28;20182;-81
2021/01/19 12:04:22;;;;;;;16.77;12.30;;;4.70;80.20;;;;;;5115030;27;20233;-80
2021/01/19 12:06:48;;;;;;;20.17;15.48;;;4.80;79.80;;;;;;5114399;27;20176;-80
2021/01/19 12:09:14;;;;;;;19.20;14.33;;;4.90;80.70;;;;;;5122238;27;20178;-80
2021/01/19 12:11:40;;;;;;;18.13;13.27;;;4.80;80.70;;;;;;5115501;28;20436;-81
2021/01/19 12:14:05;;;;;;;16.35;13.25;;;4.80;81.30;;;;;;5120074;27;20187;-80
2021/01/19 12:16:33;;;;;;;16.77;13.63;;;4.80;81.20;;;;;;5106669;28;20196;-81
2021/01/19 12:18:59;;;;;;;30.02;23.65;;;4.70;81.20;;;;;;5115955;27;20446;-80
2021/01/19 12:21:25;;;;;;;24.60;20.70;;;4.70;82.00;;;;;;5120595;28;20646;-81
2021/01/19 12:23:51;;;;;;;36.17;28.63;;;4.50;82.00;;;;;;5119745;27;20643;-81
2021/01/19 12:26:17;;;;;;;23.38;17.77;;;4.60;82.10;;;;;;5119778;27;20175;-81
2021/01/19 12:28:44;;;;;;;29.13;24.23;;;4.50;81.80;;;;;;5114543;28;20187;-80
2021/01/19 12:31:10;;;;;;;27.95;24.88;;;4.60;82.60;;;;;;5116181;28;20427;-80
2021/01/19 12:33:36;;;;;;;20.48;14.50;;;4.60;81.90;;;;;;5113709;28;20566;-80
2021/01/19 12:36:02;;;;;;;17.63;14.23;;;4.60;80.20;;;;;;5113409;28;20196;-81
2021/01/19 12:38:28;;;;;;;21.43;17.30;;;4.60;80.50;;;;;;5117739;28;20774;-81
2021/01/19 12:40:53;;;;;;;20.87;17.70;;;4.60;81.00;;;;;;5115965;28;20406;-81
2021/01/19 12:43:19;;;;;;;22.30;16.10;;;4.60;82.50;;;;;;5113525;28;20184;-80
2021/01/19 12:45:45;;;;;;;25.40;20.93;;;4.60;81.60;;;;;;5101042;28;20184;-80
2021/01/19 12:48:11;;;;;;;21.93;14.80;;;4.70;82.60;;;;;;5112793;28;20257;-80
2021/01/19 12:50:37;;;;;;;21.37;16.50;;;4.70;81.70;;;;;;5115908;27;20201;-80
2021/01/19 12:53:03;;;;;;;18.25;14.88;;;4.70;83.10;;;;;;5108577;28;20511;-80
2021/01/19 12:55:30;;;;;;;21.58;17.95;;;4.70;81.20;;;;;;5096253;28;20199;-77